Monday, December 18, 2017, 9:33 AM EST
Back to Local

KGNR, Greenville

Location: Greenville, ME, United States Lat: 45.467
Local Time: 9:33 AM EST (14:33 GMT) Lon: -69.583
Time Zone: US/Eastern Elev: 1400 ft

Show me the last for .
Show Decoded

2017-12-18 08:56 METAR KGNR 181356Z AUTO 13006KT M14/M19 A2999 RMK AO1 SLP192 T11441189 =
2017-12-18 07:56 METAR KGNR 181256Z AUTO 14003KT M15/M19 A3000 RMK AO1 SLP196 T11501189 =
2017-12-18 06:56 METAR KGNR 181156Z AUTO 00000KT M16/M19 A3002 RMK AO1 SLP203 T11611194 11150
                 21167 56018 =
2017-12-18 05:56 METAR KGNR 181056Z AUTO 00000KT M16/M19 A3002 RMK AO1 SLP203 T11561194 =
2017-12-18 04:56 METAR KGNR 180956Z AUTO 02005KT M16/M20 A3002 RMK AO1 SLP204 T11561200 =
2017-12-18 03:56 METAR KGNR 180856Z AUTO 03005KT M17/M20 A3007 RMK AO1 SLP221 T11671200 50004 =
2017-12-18 02:56 METAR KGNR 180756Z AUTO 03004KT M17/M20 A3008 RMK AO1 SLP222 T11671200 =
2017-12-18 01:56 METAR KGNR 180656Z AUTO 33006KT M17/M21 A3008 RMK AO1 SLP221 T11671206 =
2017-12-18 00:56 METAR KGNR 180556Z AUTO 35007KT M17/M21 A3006 RMK AO1 SLP215 T11671206 11156
                 21172 58014 =
2017-12-17 23:56 METAR KGNR 180456Z AUTO 34011KT M17/M21 A3007 RMK AO1 SLP219 T11671211 411171172
                 =
2017-12-17 22:56 METAR KGNR 180356Z AUTO 36006KT M17/M21 A3010 RMK AO1 SLP229 T11671206 =
2017-12-17 21:56 METAR KGNR 180256Z AUTO 33010KT M16/M21 A3010 RMK AO1 SLP231 T11611206 53001 =
2017-12-17 20:56 METAR KGNR 180156Z AUTO 34008KT M16/M21 A3009 RMK AO1 SLP225 T11611206 =
2017-12-17 19:56 METAR KGNR 180056Z AUTO 35009KT M16/M21 A3010 RMK AO1 SLP228 T11561206 =
2017-12-17 18:56 METAR KGNR 172356Z AUTO 30012G18KT M16/M20 A3010 RMK AO1 SLP230 T11561200 11117
                 21156 51017 =
2017-12-17 17:56 METAR KGNR 172256Z AUTO 30010G17KT M15/M19 A3010 RMK AO1 SLP229 T11501194 =
2017-12-17 16:56 METAR KGNR 172156Z AUTO 31011G18KT M14/M19 A3008 RMK AO1 SLP220 T11441194 =
2017-12-17 15:56 METAR KGNR 172056Z AUTO 30011G20KT M14/M19 A3005 RMK AO1 SLP210 T11391194 51002
                 =
2017-12-17 14:56 METAR KGNR 171956Z AUTO 30013G19KT M13/M19 A3005 RMK AO1 SLP209 T11281194 =
2017-12-17 13:56 METAR KGNR 171856Z AUTO 30013G19KT M12/M19 A3005 RMK AO1 SLP211 T11171194 =
2017-12-17 12:56 METAR KGNR 171756Z AUTO 30011G20KT M12/M19 A3004 RMK AO1 SLP208 T11171189 11117
                 21144 56012 =
2017-12-17 11:56 METAR KGNR 171656Z AUTO 30008KT 220V340 M12/M18 A3005 RMK AO1 SLP210 T11171183 =
2017-12-17 10:56 METAR KGNR 171556Z AUTO 31015G21KT M12/M18 A3006 RMK AO1 SLP214 T11221183 =
2017-12-17 09:56 METAR KGNR 171456Z AUTO 30010G19KT 270V330 M13/M18 A3008 RMK AO1 SLP220
                 T11281178 53010 =

Support USWX by starting your Amazon purchase here.